sensor_id;sensor_type;location;lat;lon;timestamp;pressure;altitude;pressure_sealevel;temperature;humidity
56504;BME280;48812;51.606;-0.114;2023-06-14T00:06:52;100998.47;;;19.87;35.11
56504;BME280;48812;51.606;-0.114;2023-06-14T00:09:39;101001.47;;;19.81;35.20
56504;BME280;48812;51.606;-0.114;2023-06-14T00:12:12;101001.84;;;19.74;34.39
56504;BME280;48812;51.606;-0.114;2023-06-14T00:14:44;101001.47;;;19.64;34.39
56504;BME280;48812;51.606;-0.114;2023-06-14T00:17:17;101011.88;;;19.52;35.12
56504;BME280;48812;51.606;-0.114;2023-06-14T00:19:51;101008.84;;;19.43;34.87
56504;BME280;48812;51.606;-0.114;2023-06-14T00:22:24;101003.63;;;19.40;35.68
56504;BME280;48812;51.606;-0.114;2023-06-14T00:28:49;100991.09;;;19.40;36.41
56504;BME280;48812;51.606;-0.114;2023-06-14T00:31:22;100998.97;;;19.43;35.99
56504;BME280;48812;51.606;-0.114;2023-06-14T00:33:54;101010.56;;;19.44;36.31
56504;BME280;48812;51.606;-0.114;2023-06-14T00:39:38;101012.50;;;19.23;36.66
56504;BME280;48812;51.606;-0.114;2023-06-14T00:42:10;101009.47;;;19.11;37.31
56504;BME280;48812;51.606;-0.114;2023-06-14T00:44:43;101009.97;;;19.02;37.37
56504;BME280;48812;51.606;-0.114;2023-06-14T00:47:15;101008.50;;;18.95;38.09
56504;BME280;48812;51.606;-0.114;2023-06-14T00:49:48;101015.91;;;18.90;39.03
56504;BME280;48812;51.606;-0.114;2023-06-14T00:52:31;101005.25;;;18.88;38.09
56504;BME280;48812;51.606;-0.114;2023-06-14T00:55:04;101016.06;;;18.87;38.84
56504;BME280;48812;51.606;-0.114;2023-06-14T00:57:38;101012.59;;;18.85;39.55
56504;BME280;48812;51.606;-0.114;2023-06-14T01:00:12;101013.69;;;18.81;39.65
56504;BME280;48812;51.606;-0.114;2023-06-14T01:02:44;101019.28;;;18.76;40.26
56504;BME280;48812;51.606;-0.114;2023-06-14T01:05:17;101017.75;;;18.70;40.09
56504;BME280;48812;51.606;-0.114;2023-06-14T01:15:00;101010.16;;;18.42;41.71
56504;BME280;48812;51.606;-0.114;2023-06-14T01:17:34;101019.38;;;18.36;42.12
56504;BME280;48812;51.606;-0.114;2023-06-14T01:24:24;101008.41;;;18.22;43.26
56504;BME280;48812;51.606;-0.114;2023-06-14T01:26:57;101015.56;;;18.21;43.79
56504;BME280;48812;51.606;-0.114;2023-06-14T01:29:43;101023.16;;;18.12;43.40
56504;BME280;48812;51.606;-0.114;2023-06-14T01:32:19;101023.56;;;18.02;44.03
56504;BME280;48812;51.606;-0.114;2023-06-14T01:46:18;101010.63;;;17.52;46.82
56504;BME280;48812;51.606;-0.114;2023-06-14T01:52:37;101007.88;;;17.33;47.21
56504;BME280;48812;51.606;-0.114;2023-06-14T01:55:28;101003.84;;;17.23;46.84
56504;BME280;48812;51.606;-0.114;2023-06-14T01:58:06;101003.28;;;17.14;46.92
56504;BME280;48812;51.606;-0.114;2023-06-14T02:06:59;100995.81;;;17.01;47.80
56504;BME280;48812;51.606;-0.114;2023-06-14T02:09:38;100994.78;;;17.05;47.57
56504;BME280;48812;51.606;-0.114;2023-06-14T02:12:27;100991.09;;;17.07;47.95
56504;BME280;48812;51.606;-0.114;2023-06-14T02:15:02;100991.88;;;17.11;47.71
56504;BME280;48812;51.606;-0.114;2023-06-14T02:17:35;100986.66;;;17.08;47.76
56504;BME280;48812;51.606;-0.114;2023-06-14T02:20:11;100987.75;;;17.02;47.95
56504;BME280;48812;51.606;-0.114;2023-06-14T02:29:24;100981.59;;;16.80;49.01
56504;BME280;48812;51.606;-0.114;2023-06-14T02:31:56;100977.47;;;16.71;49.28
56504;BME280;48812;51.606;-0.114;2023-06-14T02:34:29;100974.13;;;16.66;49.27
56504;BME280;48812;51.606;-0.114;2023-06-14T02:39:52;100967.59;;;16.51;49.50
56504;BME280;48812;51.606;-0.114;2023-06-14T02:42:31;100967.53;;;16.52;49.95
56504;BME280;48812;51.606;-0.114;2023-06-14T02:45:04;100965.66;;;16.54;49.75
56504;BME280;48812;51.606;-0.114;2023-06-14T02:47:36;100973.66;;;16.54;50.11
56504;BME280;48812;51.606;-0.114;2023-06-14T02:50:09;100987.25;;;16.48;50.59
56504;BME280;48812;51.606;-0.114;2023-06-14T02:52:57;100984.97;;;16.39;50.84
56504;BME280;48812;51.606;-0.114;2023-06-14T02:59:16;100980.56;;;16.14;51.69
56504;BME280;48812;51.606;-0.114;2023-06-14T03:01:50;100982.69;;;16.04;51.98
56504;BME280;48812;51.606;-0.114;2023-06-14T03:04:27;100984.72;;;15.98;51.90
56504;BME280;48812;51.606;-0.114;2023-06-14T03:07:18;100988.50;;;15.91;52.00
56504;BME280;48812;51.606;-0.114;2023-06-14T03:09:54;100980.66;;;15.88;52.71
56504;BME280;48812;51.606;-0.114;2023-06-14T03:12:36;100977.78;;;15.92;52.83
56504;BME280;48812;51.606;-0.114;2023-06-14T03:15:10;100989.25;;;15.96;52.72
56504;BME280;48812;51.606;-0.114;2023-06-14T03:17:46;100983.75;;;15.99;52.49
56504;BME280;48812;51.606;-0.114;2023-06-14T03:21:06;100989.09;;;15.99;52.90
56504;BME280;48812;51.606;-0.114;2023-06-14T03:23:39;100980.50;;;15.91;53.15
56504;BME280;48812;51.606;-0.114;2023-06-14T03:29:09;100981.91;;;15.77;53.91
56504;BME280;48812;51.606;-0.114;2023-06-14T03:31:55;100976.75;;;15.73;53.53
56504;BME280;48812;51.606;-0.114;2023-06-14T03:34:52;100977.84;;;15.67;54.07
56504;BME280;48812;51.606;-0.114;2023-06-14T03:37:27;100981.66;;;15.60;54.79
56504;BME280;48812;51.606;-0.114;2023-06-14T03:40:01;100983.63;;;15.55;54.70
56504;BME280;48812;51.606;-0.114;2023-06-14T03:42:53;100984.69;;;15.49;54.91
56504;BME280;48812;51.606;-0.114;2023-06-14T03:45:26;100981.28;;;15.45;55.18
56504;BME280;48812;51.606;-0.114;2023-06-14T03:47:59;100983.06;;;15.45;55.48
56504;BME280;48812;51.606;-0.114;2023-06-14T03:50:34;100980.47;;;15.43;55.67
56504;BME280;48812;51.606;-0.114;2023-06-14T03:53:11;100986.75;;;15.41;55.50
56504;BME280;48812;51.606;-0.114;2023-06-14T03:55:52;100980.50;;;15.42;56.07
56504;BME280;48812;51.606;-0.114;2023-06-14T03:58:41;100985.56;;;15.49;55.87
56504;BME280;48812;51.606;-0.114;2023-06-14T04:01:16;100996.22;;;15.49;55.85
56504;BME280;48812;51.606;-0.114;2023-06-14T04:07:06;100989.38;;;15.42;56.61
56504;BME280;48812;51.606;-0.114;2023-06-14T04:09:41;100982.41;;;15.38;56.59
56504;BME280;48812;51.606;-0.114;2023-06-14T04:16:25;100996.84;;;15.31;57.28
56504;BME280;48812;51.606;-0.114;2023-06-14T04:21:57;100995.25;;;15.27;57.91
56504;BME280;48812;51.606;-0.114;2023-06-14T04:24:31;100998.81;;;15.26;58.05
56504;BME280;48812;51.606;-0.114;2023-06-14T04:27:04;101001.53;;;15.24;58.19
56504;BME280;48812;51.606;-0.114;2023-06-14T04:29:36;101004.34;;;15.20;57.93
56504;BME280;48812;51.606;-0.114;2023-06-14T04:32:12;101003.53;;;15.18;58.39
56504;BME280;48812;51.606;-0.114;2023-06-14T04:35:15;101007.94;;;15.19;58.11
56504;BME280;48812;51.606;-0.114;2023-06-14T04:37:49;101001.69;;;15.20;58.70
56504;BME280;48812;51.606;-0.114;2023-06-14T04:40:28;101001.69;;;15.20;58.46
56504;BME280;48812;51.606;-0.114;2023-06-14T04:43:01;101000.88;;;15.18;59.20
56504;BME280;48812;51.606;-0.114;2023-06-14T04:45:37;101000.97;;;15.15;59.23
56504;BME280;48812;51.606;-0.114;2023-06-14T04:49:24;101002.00;;;15.10;59.34
56504;BME280;48812;51.606;-0.114;2023-06-14T04:51:59;101010.75;;;15.14;58.97
56504;BME280;48812;51.606;-0.114;2023-06-14T04:54:40;101014.19;;;15.18;59.69
56504;BME280;48812;51.606;-0.114;2023-06-14T04:57:27;101015.00;;;15.20;58.99
56504;BME280;48812;51.606;-0.114;2023-06-14T05:00:03;101008.72;;;15.22;59.25
56504;BME280;48812;51.606;-0.114;2023-06-14T05:02:38;101006.84;;;15.24;59.42
56504;BME280;48812;51.606;-0.114;2023-06-14T05:05:10;101020.13;;;15.26;59.58
56504;BME280;48812;51.606;-0.114;2023-06-14T05:07:43;101012.03;;;15.29;59.16
56504;BME280;48812;51.606;-0.114;2023-06-14T05:10:17;101011.00;;;15.33;60.05
56504;BME280;48812;51.606;-0.114;2023-06-14T05:12:51;101015.25;;;15.39;59.73
56504;BME280;48812;51.606;-0.114;2023-06-14T05:15:25;101014.16;;;15.44;59.71
56504;BME280;48812;51.606;-0.114;2023-06-14T05:17:58;101021.13;;;15.48;59.57
56504;BME280;48812;51.606;-0.114;2023-06-14T05:20:30;101015.69;;;15.52;59.54
56504;BME280;48812;51.606;-0.114;2023-06-14T05:23:05;101012.00;;;15.56;59.49
56504;BME280;48812;51.606;-0.114;2023-06-14T05:25:37;101020.69;;;15.61;59.37
56504;BME280;48812;51.606;-0.114;2023-06-14T05:28:16;101018.72;;;15.66;59.24
56504;BME280;48812;51.606;-0.114;2023-06-14T05:30:51;101014.09;;;15.73;59.33
56504;BME280;48812;51.606;-0.114;2023-06-14T05:33:23;101016.28;;;15.85;59.03
56504;BME280;48812;51.606;-0.114;2023-06-14T05:36:03;101018.63;;;15.94;59.37
56504;BME280;48812;51.606;-0.114;2023-06-14T05:38:38;101027.28;;;16.01;59.13
56504;BME280;48812;51.606;-0.114;2023-06-14T05:41:15;101022.63;;;16.06;59.21
56504;BME280;48812;51.606;-0.114;2023-06-14T05:43:47;101012.84;;;16.07;59.08
56504;BME280;48812;51.606;-0.114;2023-06-14T05:46:20;101019.91;;;16.09;59.13
56504;BME280;48812;51.606;-0.114;2023-06-14T05:48:56;101014.31;;;16.15;59.45
56504;BME280;48812;51.606;-0.114;2023-06-14T05:51:28;101023.63;;;16.29;58.79
56504;BME280;48812;51.606;-0.114;2023-06-14T05:54:01;101021.25;;;16.43;58.66
56504;BME280;48812;51.606;-0.114;2023-06-14T05:56:33;101017.31;;;16.53;58.40
56504;BME280;48812;51.606;-0.114;2023-06-14T05:59:06;101019.69;;;16.61;58.62
56504;BME280;48812;51.606;-0.114;2023-06-14T06:01:53;101021.19;;;16.68;58.36
56504;BME280;48812;51.606;-0.114;2023-06-14T06:04:25;101016.41;;;16.76;58.13
56504;BME280;48812;51.606;-0.114;2023-06-14T06:06:58;101022.25;;;16.86;58.17
56504;BME280;48812;51.606;-0.114;2023-06-14T06:09:32;101021.88;;;16.95;58.47
56504;BME280;48812;51.606;-0.114;2023-06-14T06:12:05;101024.16;;;17.05;57.76
56504;BME280;48812;51.606;-0.114;2023-06-14T06:14:38;101021.19;;;17.12;57.72
56504;BME280;48812;51.606;-0.114;2023-06-14T06:17:11;101020.19;;;17.15;57.47
56504;BME280;48812;51.606;-0.114;2023-06-14T06:19:44;101024.47;;;17.19;58.04
56504;BME280;48812;51.606;-0.114;2023-06-14T06:22:16;101027.00;;;17.22;57.46
56504;BME280;48812;51.606;-0.114;2023-06-14T06:24:49;101025.06;;;17.27;57.38
56504;BME280;48812;51.606;-0.114;2023-06-14T06:27:22;101027.50;;;17.32;57.70
56504;BME280;48812;51.606;-0.114;2023-06-14T06:29:54;101027.13;;;17.41;57.69
56504;BME280;48812;51.606;-0.114;2023-06-14T06:32:26;101032.28;;;17.46;57.36
56504;BME280;48812;51.606;-0.114;2023-06-14T06:34:59;101036.28;;;17.56;57.65
56504;BME280;48812;51.606;-0.114;2023-06-14T06:37:32;101041.19;;;17.67;57.71
56504;BME280;48812;51.606;-0.114;2023-06-14T06:40:04;101035.63;;;17.72;56.71
56504;BME280;48812;51.606;-0.114;2023-06-14T06:42:38;101033.81;;;17.72;57.39
56504;BME280;48812;51.606;-0.114;2023-06-14T06:45:10;101034.81;;;17.69;57.32
56504;BME280;48812;51.606;-0.114;2023-06-14T06:47:44;101041.97;;;17.69;57.43
56504;BME280;48812;51.606;-0.114;2023-06-14T06:50:17;101042.72;;;17.73;57.43
56504;BME280;48812;51.606;-0.114;2023-06-14T06:52:49;101046.19;;;17.75;57.23
56504;BME280;48812;51.606;-0.114;2023-06-14T06:55:22;101045.97;;;17.79;56.67
56504;BME280;48812;51.606;-0.114;2023-06-14T06:57:54;101044.03;;;17.83;57.73
56504;BME280;48812;51.606;-0.114;2023-06-14T07:00:29;101051.00;;;17.87;57.10
56504;BME280;48812;51.606;-0.114;2023-06-14T07:03:01;101046.25;;;17.94;57.05
56504;BME280;48812;51.606;-0.114;2023-06-14T07:05:37;101053.06;;;18.01;56.94
56504;BME280;48812;51.606;-0.114;2023-06-14T07:08:13;101051.63;;;18.13;57.21
56504;BME280;48812;51.606;-0.114;2023-06-14T07:10:45;101049.47;;;18.21;56.18
56504;BME280;48812;51.606;-0.114;2023-06-14T07:13:18;101045.59;;;18.28;57.12
56504;BME280;48812;51.606;-0.114;2023-06-14T07:15:54;101052.59;;;18.31;56.64
56504;BME280;48812;51.606;-0.114;2023-06-14T07:18:27;101050.66;;;18.34;57.16
56504;BME280;48812;51.606;-0.114;2023-06-14T07:21:02;101054.09;;;18.38;56.61
56504;BME280;48812;51.606;-0.114;2023-06-14T07:23:37;101054.03;;;18.39;57.20
56504;BME280;48812;51.606;-0.114;2023-06-14T07:26:10;101050.25;;;18.43;56.97
56504;BME280;48812;51.606;-0.114;2023-06-14T07:28:47;101053.44;;;18.52;56.63
56504;BME280;48812;51.606;-0.114;2023-06-14T07:31:20;101049.56;;;18.59;57.05
56504;BME280;48812;51.606;-0.114;2023-06-14T07:33:55;101047.53;;;18.64;56.36
56504;BME280;48812;51.606;-0.114;2023-06-14T07:36:28;101052.75;;;18.67;56.73
56504;BME280;48812;51.606;-0.114;2023-06-14T07:39:00;101059.66;;;18.71;56.39
56504;BME280;48812;51.606;-0.114;2023-06-14T07:41:36;101065.53;;;18.79;56.73
56504;BME280;48812;51.606;-0.114;2023-06-14T07:44:08;101066.16;;;18.85;55.96
56504;BME280;48812;51.606;-0.114;2023-06-14T07:46:40;101060.66;;;18.88;56.92
56504;BME280;48812;51.606;-0.114;2023-06-14T07:49:12;101064.13;;;18.90;56.32
56504;BME280;48812;51.606;-0.114;2023-06-14T07:51:45;101069.28;;;18.94;55.92
56504;BME280;48812;51.606;-0.114;2023-06-14T07:54:19;101067.16;;;19.01;56.00
56504;BME280;48812;51.606;-0.114;2023-06-14T07:56:51;101072.38;;;19.04;55.74
56504;BME280;48812;51.606;-0.114;2023-06-14T07:59:23;101068.63;;;19.08;56.17
56504;BME280;48812;51.606;-0.114;2023-06-14T08:01:55;101071.94;;;19.13;55.60
56504;BME280;48812;51.606;-0.114;2023-06-14T08:04:28;101069.03;;;19.18;55.93
56504;BME280;48812;51.606;-0.114;2023-06-14T08:07:00;101069.41;;;19.28;55.94
56504;BME280;48812;51.606;-0.114;2023-06-14T08:09:32;101067.09;;;19.39;55.58
56504;BME280;48812;51.606;-0.114;2023-06-14T08:12:05;101071.84;;;19.51;55.28
56504;BME280;48812;51.606;-0.114;2023-06-14T08:14:45;101073.13;;;19.62;55.34
56504;BME280;48812;51.606;-0.114;2023-06-14T08:17:20;101080.63;;;19.73;55.18
56504;BME280;48812;51.606;-0.114;2023-06-14T08:19:52;101070.28;;;19.82;55.01
56504;BME280;48812;51.606;-0.114;2023-06-14T08:22:33;101077.84;;;19.92;54.89
56504;BME280;48812;51.606;-0.114;2023-06-14T08:25:03;101074.69;;;20.01;54.55
56504;BME280;48812;51.606;-0.114;2023-06-14T08:27:36;101075.22;;;20.07;54.78
56504;BME280;48812;51.606;-0.114;2023-06-14T08:30:09;101076.69;;;20.13;54.47
56504;BME280;48812;51.606;-0.114;2023-06-14T08:32:41;101077.16;;;20.21;54.73
56504;BME280;48812;51.606;-0.114;2023-06-14T08:35:15;101071.47;;;20.27;54.52
56504;BME280;48812;51.606;-0.114;2023-06-14T08:37:47;101073.91;;;20.32;54.34
56504;BME280;48812;51.606;-0.114;2023-06-14T08:40:20;101078.91;;;20.40;54.00
56504;BME280;48812;51.606;-0.114;2023-06-14T08:42:54;101081.22;;;20.46;54.21
56504;BME280;48812;51.606;-0.114;2023-06-14T08:45:27;101076.38;;;20.53;54.12
56504;BME280;48812;51.606;-0.114;2023-06-14T08:48:03;101068.06;;;20.57;54.25
56504;BME280;48812;51.606;-0.114;2023-06-14T08:50:35;101069.56;;;20.63;54.05
56504;BME280;48812;51.606;-0.114;2023-06-14T08:53:09;101064.88;;;20.67;53.85
56504;BME280;48812;51.606;-0.114;2023-06-14T08:55:43;101074.31;;;20.74;53.82
56504;BME280;48812;51.606;-0.114;2023-06-14T08:58:15;101078.50;;;20.79;53.74
56504;BME280;48812;51.606;-0.114;2023-06-14T09:00:48;101076.34;;;20.86;53.67
56504;BME280;48812;51.606;-0.114;2023-06-14T09:03:21;101074.16;;;20.93;53.57
56504;BME280;48812;51.606;-0.114;2023-06-14T09:05:56;101070.25;;;20.98;53.67
56504;BME280;48812;51.606;-0.114;2023-06-14T09:08:28;101072.59;;;21.05;53.52
56504;BME280;48812;51.606;-0.114;2023-06-14T09:11:02;101075.97;;;21.08;53.64
56504;BME280;48812;51.606;-0.114;2023-06-14T09:13:35;101079.25;;;21.13;53.43
56504;BME280;48812;51.606;-0.114;2023-06-14T09:16:07;101075.53;;;21.16;53.50
56504;BME280;48812;51.606;-0.114;2023-06-14T09:18:40;101080.75;;;21.19;53.51
56504;BME280;48812;51.606;-0.114;2023-06-14T09:21:13;101082.28;;;21.23;53.34
56504;BME280;48812;51.606;-0.114;2023-06-14T09:23:46;101095.63;;;21.25;53.33
56504;BME280;48812;51.606;-0.114;2023-06-14T09:26:19;101089.25;;;21.27;53.26
56504;BME280;48812;51.606;-0.114;2023-06-14T09:28:53;101089.94;;;21.31;53.45
56504;BME280;48812;51.606;-0.114;2023-06-14T09:31:27;101090.44;;;21.38;53.29
56504;BME280;48812;51.606;-0.114;2023-06-14T09:34:03;101084.72;;;21.44;53.20
56504;BME280;48812;51.606;-0.114;2023-06-14T09:36:35;101092.41;;;21.50;53.05
56504;BME280;48812;51.606;-0.114;2023-06-14T09:39:16;101093.03;;;21.55;52.92
56504;BME280;48812;51.606;-0.114;2023-06-14T09:41:49;101096.41;;;21.59;53.04
56504;BME280;48812;51.606;-0.114;2023-06-14T09:44:23;101095.34;;;21.61;53.08
56504;BME280;48812;51.606;-0.114;2023-06-14T09:47:00;101099.41;;;21.68;53.02
56504;BME280;48812;51.606;-0.114;2023-06-14T09:49:34;101103.72;;;21.71;52.83
56504;BME280;48812;51.606;-0.114;2023-06-14T09:52:07;101102.69;;;21.73;52.70
56504;BME280;48812;51.606;-0.114;2023-06-14T09:54:43;101102.50;;;21.77;52.71
56504;BME280;48812;51.606;-0.114;2023-06-14T09:57:22;101101.44;;;21.79;52.60
56504;BME280;48812;51.606;-0.114;2023-06-14T09:59:56;101097.72;;;21.82;52.81
56504;BME280;48812;51.606;-0.114;2023-06-14T10:02:34;101094.84;;;21.85;52.84
56504;BME280;48812;51.606;-0.114;2023-06-14T10:05:09;101090.13;;;21.88;52.76
56504;BME280;48812;51.606;-0.114;2023-06-14T10:07:49;101093.41;;;21.94;52.56
56504;BME280;48812;51.606;-0.114;2023-06-14T10:10:24;101101.22;;;21.98;52.89
56504;BME280;48812;51.606;-0.114;2023-06-14T10:13:10;101097.34;;;22.02;52.64
56504;BME280;48812;51.606;-0.114;2023-06-14T10:18:43;101101.19;;;22.14;52.47
56504;BME280;48812;51.606;-0.114;2023-06-14T10:23:58;101087.22;;;22.22;52.06
56504;BME280;48812;51.606;-0.114;2023-06-14T10:26:32;101088.69;;;22.27;52.30
56504;BME280;48812;51.606;-0.114;2023-06-14T10:29:08;101086.66;;;22.31;52.04
56504;BME280;48812;51.606;-0.114;2023-06-14T10:31:43;101084.53;;;22.36;52.20
56504;BME280;48812;51.606;-0.114;2023-06-14T10:37:00;101085.88;;;22.43;52.04
56504;BME280;48812;51.606;-0.114;2023-06-14T10:39:40;101082.88;;;22.48;51.70
56504;BME280;48812;51.606;-0.114;2023-06-14T10:42:19;101078.16;;;22.52;51.76
56504;BME280;48812;51.606;-0.114;2023-06-14T10:47:32;101082.22;;;22.59;51.46
56504;BME280;48812;51.606;-0.114;2023-06-14T10:50:08;101078.34;;;22.63;51.74
56504;BME280;48812;51.606;-0.114;2023-06-14T10:52:42;101086.25;;;22.66;51.65
56504;BME280;48812;51.606;-0.114;2023-06-14T10:55:17;101075.28;;;22.69;51.19
56504;BME280;48812;51.606;-0.114;2023-06-14T10:57:52;101079.47;;;22.73;51.50
56504;BME280;48812;51.606;-0.114;2023-06-14T11:00:28;101084.69;;;22.76;51.27
56504;BME280;48812;51.606;-0.114;2023-06-14T11:10:52;101074.97;;;22.88;50.82
56504;BME280;48812;51.606;-0.114;2023-06-14T11:13:27;101063.09;;;22.91;51.12
56504;BME280;48812;51.606;-0.114;2023-06-14T11:16:03;101064.72;;;22.93;51.19
56504;BME280;48812;51.606;-0.114;2023-06-14T11:18:42;101064.53;;;22.96;50.86
56504;BME280;48812;51.606;-0.114;2023-06-14T11:21:17;101066.19;;;22.99;51.07
56504;BME280;48812;51.606;-0.114;2023-06-14T11:23:55;101064.25;;;23.01;51.13
56504;BME280;48812;51.606;-0.114;2023-06-14T11:26:28;101057.69;;;23.05;50.74
56504;BME280;48812;51.606;-0.114;2023-06-14T11:29:00;101060.19;;;23.08;50.63
56504;BME280;48812;51.606;-0.114;2023-06-14T11:31:33;101054.59;;;23.11;50.60
56504;BME280;48812;51.606;-0.114;2023-06-14T11:34:05;101052.66;;;23.13;50.50
56504;BME280;48812;51.606;-0.114;2023-06-14T11:36:38;101055.06;;;23.18;50.48
56504;BME280;48812;51.606;-0.114;2023-06-14T11:39:10;101052.16;;;23.21;50.45
56504;BME280;48812;51.606;-0.114;2023-06-14T11:41:43;101057.22;;;23.26;50.14
56504;BME280;48812;51.606;-0.114;2023-06-14T11:44:16;101043.53;;;23.29;50.51
56504;BME280;48812;51.606;-0.114;2023-06-14T11:46:48;101046.78;;;23.34;50.03
56504;BME280;48812;51.606;-0.114;2023-06-14T11:49:23;101041.91;;;23.39;50.40
56504;BME280;48812;51.606;-0.114;2023-06-14T11:51:55;101037.09;;;23.44;50.14
56504;BME280;48812;51.606;-0.114;2023-06-14T11:54:28;101036.88;;;23.47;50.48
56504;BME280;48812;51.606;-0.114;2023-06-14T11:57:00;101033.09;;;23.50;50.03
56504;BME280;48812;51.606;-0.114;2023-06-14T11:59:37;101039.25;;;23.52;49.96
56504;BME280;48812;51.606;-0.114;2023-06-14T12:02:14;101047.16;;;23.55;49.88
56504;BME280;48812;51.606;-0.114;2023-06-14T12:04:47;101038.94;;;23.56;49.79
56504;BME280;48812;51.606;-0.114;2023-06-14T12:07:20;101036.03;;;23.60;50.11
56504;BME280;48812;51.606;-0.114;2023-06-14T12:12:26;101042.19;;;23.62;49.82
56504;BME280;48812;51.606;-0.114;2023-06-14T12:14:58;101039.38;;;23.63;49.74
56504;BME280;48812;51.606;-0.114;2023-06-14T12:17:32;101036.59;;;23.65;49.41
56504;BME280;48812;51.606;-0.114;2023-06-14T12:20:08;101039.19;;;23.66;49.33
56504;BME280;48812;51.606;-0.114;2023-06-14T12:22:52;101046.13;;;23.70;49.18
56504;BME280;48812;51.606;-0.114;2023-06-14T12:25:34;101047.72;;;23.73;49.38
56504;BME280;48812;51.606;-0.114;2023-06-14T12:28:08;101038.56;;;23.76;49.06
56504;BME280;48812;51.606;-0.114;2023-06-14T12:30:40;101032.06;;;23.78;49.35
56504;BME280;48812;51.606;-0.114;2023-06-14T12:33:13;101035.53;;;23.80;49.20
56504;BME280;48812;51.606;-0.114;2023-06-14T12:35:46;101035.34;;;23.83;48.69
56504;BME280;48812;51.606;-0.114;2023-06-14T12:38:18;101041.41;;;23.87;48.98
56504;BME280;48812;51.606;-0.114;2023-06-14T12:40:50;101034.91;;;23.89;49.03
56504;BME280;48812;51.606;-0.114;2023-06-14T12:43:23;101047.25;;;23.94;48.67
56504;BME280;48812;51.606;-0.114;2023-06-14T12:45:55;101029.09;;;23.96;48.80
56504;BME280;48812;51.606;-0.114;2023-06-14T12:48:28;101035.13;;;23.99;48.48
56504;BME280;48812;51.606;-0.114;2023-06-14T12:51:01;101026.72;;;24.04;48.61
56504;BME280;48812;51.606;-0.114;2023-06-14T12:53:34;101029.19;;;24.07;48.49
56504;BME280;48812;51.606;-0.114;2023-06-14T12:56:06;101032.53;;;24.10;48.54
56504;BME280;48812;51.606;-0.114;2023-06-14T12:58:38;101029.72;;;24.12;48.60
56504;BME280;48812;51.606;-0.114;2023-06-14T13:01:11;101027.56;;;24.17;48.56
56504;BME280;48812;51.606;-0.114;2023-06-14T13:03:43;101033.59;;;24.21;48.53
56504;BME280;48812;51.606;-0.114;2023-06-14T13:06:16;101032.53;;;24.23;48.26
56504;BME280;48812;51.606;-0.114;2023-06-14T13:08:48;101032.31;;;24.26;48.10
56504;BME280;48812;51.606;-0.114;2023-06-14T13:11:20;101034.75;;;24.29;48.02
56504;BME280;48812;51.606;-0.114;2023-06-14T13:13:53;101037.25;;;24.33;47.62
56504;BME280;48812;51.606;-0.114;2023-06-14T13:16:26;101039.00;;;24.34;47.70
56504;BME280;48812;51.606;-0.114;2023-06-14T13:18:58;101038.88;;;24.35;47.41
56504;BME280;48812;51.606;-0.114;2023-06-14T13:21:30;101044.94;;;24.39;47.07
56504;BME280;48812;51.606;-0.114;2023-06-14T13:24:03;101030.34;;;24.41;47.04
56504;BME280;48812;51.606;-0.114;2023-06-14T13:26:35;101025.47;;;24.46;46.65
56504;BME280;48812;51.606;-0.114;2023-06-14T13:29:07;101024.88;;;24.54;46.29
56504;BME280;48812;51.606;-0.114;2023-06-14T13:31:40;101028.91;;;24.61;46.58
56504;BME280;48812;51.606;-0.114;2023-06-14T13:34:12;101031.19;;;24.68;46.47
56504;BME280;48812;51.606;-0.114;2023-06-14T13:36:46;101034.41;;;24.73;46.59
56504;BME280;48812;51.606;-0.114;2023-06-14T13:39:19;101026.19;;;24.74;46.63
56504;BME280;48812;51.606;-0.114;2023-06-14T13:41:52;101032.22;;;24.78;46.50
56504;BME280;48812;51.606;-0.114;2023-06-14T13:44:24;101029.28;;;24.81;46.49
56504;BME280;48812;51.606;-0.114;2023-06-14T13:46:57;101028.06;;;24.85;46.68
56504;BME280;48812;51.606;-0.114;2023-06-14T13:49:30;101025.13;;;24.88;46.72
56504;BME280;48812;51.606;-0.114;2023-06-14T13:52:09;101027.63;;;24.91;46.82
56504;BME280;48812;51.606;-0.114;2023-06-14T13:54:43;101021.13;;;24.94;46.87
56504;BME280;48812;51.606;-0.114;2023-06-14T13:57:17;101034.50;;;24.95;46.50
56504;BME280;48812;51.606;-0.114;2023-06-14T13:59:50;101026.28;;;24.97;46.36
56504;BME280;48812;51.606;-0.114;2023-06-14T14:02:23;101028.75;;;25.00;46.48
56504;BME280;48812;51.606;-0.114;2023-06-14T14:04:56;101032.34;;;25.00;46.27
56504;BME280;48812;51.606;-0.114;2023-06-14T14:07:29;101021.41;;;25.02;45.98
56504;BME280;48812;51.606;-0.114;2023-06-14T14:10:02;101023.22;;;25.01;45.98
56504;BME280;48812;51.606;-0.114;2023-06-14T14:12:34;101021.53;;;25.00;46.00
56504;BME280;48812;51.606;-0.114;2023-06-14T14:15:06;101023.97;;;25.03;46.02
56504;BME280;48812;51.606;-0.114;2023-06-14T14:17:45;101030.91;;;25.08;45.77
56504;BME280;48812;51.606;-0.114;2023-06-14T14:20:18;101024.03;;;25.15;45.62
56504;BME280;48812;51.606;-0.114;2023-06-14T14:22:50;101023.56;;;25.21;45.65
56504;BME280;48812;51.606;-0.114;2023-06-14T14:25:23;101023.97;;;25.28;45.38
56504;BME280;48812;51.606;-0.114;2023-06-14T14:27:55;101022.56;;;25.35;45.29
56504;BME280;48812;51.606;-0.114;2023-06-14T14:30:27;101025.66;;;25.42;45.18
56504;BME280;48812;51.606;-0.114;2023-06-14T14:33:00;101028.88;;;25.47;45.08
56504;BME280;48812;51.606;-0.114;2023-06-14T14:35:32;101024.94;;;25.51;44.97
56504;BME280;48812;51.606;-0.114;2023-06-14T14:41:05;101033.78;;;25.53;44.62
56504;BME280;48812;51.606;-0.114;2023-06-14T14:43:39;101036.50;;;25.53;44.62
56504;BME280;48812;51.606;-0.114;2023-06-14T14:46:12;101044.63;;;25.53;44.44
56504;BME280;48812;51.606;-0.114;2023-06-14T14:48:44;101032.84;;;25.54;44.35
56504;BME280;48812;51.606;-0.114;2023-06-14T14:51:16;101044.41;;;25.56;44.12
56504;BME280;48812;51.606;-0.114;2023-06-14T14:53:48;101038.50;;;25.62;44.08
56504;BME280;48812;51.606;-0.114;2023-06-14T14:56:22;101044.19;;;25.70;43.90